createdAt,value
2023-05-10T00:01:00.749Z,67.08
2023-05-10T00:04:28.336Z,66.93
2023-05-10T00:07:50.199Z,67.76
2023-05-10T00:11:11.893Z,67.87
2023-05-10T00:14:33.813Z,67.52
2023-05-10T00:17:58.740Z,67.17
2023-05-10T00:21:25.207Z,67.58
2023-05-10T00:24:49.226Z,68.24
2023-05-10T00:28:11.078Z,68.18
2023-05-10T00:31:32.703Z,68.09
2023-05-10T00:34:54.288Z,68.65
2023-05-10T00:38:18.496Z,68.40
2023-05-10T00:41:40.135Z,68.73
2023-05-10T00:45:06.701Z,69.17
2023-05-10T00:48:30.379Z,68.94
2023-05-10T00:51:52.932Z,70.28
2023-05-10T00:55:14.678Z,70.87
2023-05-10T00:58:36.689Z,70.07
2023-05-10T01:01:59.205Z,70.47
2023-05-10T01:05:25.724Z,70.43
2023-05-10T01:08:48.745Z,71.08
2023-05-10T01:12:12.616Z,71.11
2023-05-10T01:15:37.897Z,72.33
2023-05-10T01:18:59.852Z,72.15
2023-05-10T01:22:33.617Z,72.04
2023-05-10T01:26:07.453Z,71.44
2023-05-10T01:30:15.677Z,70.89
2023-05-10T01:33:48.744Z,70.81
2023-05-10T01:37:18.477Z,70.32
2023-05-10T01:41:06.593Z,70.13
2023-05-10T01:44:55.750Z,70.21
2023-05-10T01:48:20.437Z,70.32
2023-05-10T01:51:53.182Z,70.47
2023-05-10T01:55:17.694Z,71.02
2023-05-10T01:58:44.993Z,71.12
2023-05-10T02:02:07.934Z,70.83
2023-05-10T02:05:33.249Z,70.17
2023-05-10T02:08:58.306Z,69.83
2023-05-10T02:12:21.515Z,69.11
2023-05-10T02:15:44.271Z,69.24
2023-05-10T02:19:07.092Z,69.39
2023-05-10T02:22:34.671Z,69.97
2023-05-10T02:26:04.817Z,69.17
2023-05-10T02:29:29.804Z,68.40
2023-05-10T02:32:53.377Z,68.21
2023-05-10T02:36:16.240Z,67.92
2023-05-10T02:39:39.480Z,67.84
2023-05-10T02:43:07.511Z,67.59
2023-05-10T02:46:29.312Z,67.35
2023-05-10T02:49:50.962Z,67.74
2023-05-10T02:53:19.905Z,67.48
2023-05-10T02:56:51.671Z,67.27
2023-05-10T03:00:13.548Z,67.03
2023-05-10T03:03:37.445Z,67.26
2023-05-10T03:07:01.945Z,66.49
2023-05-10T03:10:34.445Z,67.26
2023-05-10T03:14:11.173Z,67.87
2023-05-10T03:17:53.706Z,67.97
2023-05-10T03:21:19.078Z,67.91
2023-05-10T03:24:42.239Z,67.44
2023-05-10T03:28:06.015Z,67.85
2023-05-10T03:31:32.382Z,67.92
2023-05-10T03:34:56.238Z,67.83
2023-05-10T03:38:20.129Z,67.66
2023-05-10T03:41:42.507Z,67.55
2023-05-10T03:45:06.819Z,67.91
2023-05-10T03:48:28.491Z,68.39
2023-05-10T03:51:52.281Z,68.04
2023-05-10T03:55:16.096Z,68.77
2023-05-10T03:58:37.701Z,68.86
2023-05-10T04:02:01.405Z,68.46
2023-05-10T04:05:22.987Z,68.90
2023-05-10T04:08:46.904Z,69.52
2023-05-10T04:12:11.066Z,70.10
2023-05-10T04:15:32.783Z,70.06
2023-05-10T04:18:54.515Z,69.29
2023-05-10T04:22:17.288Z,68.69
2023-05-10T04:25:41.248Z,68.25
2023-05-10T04:29:03.503Z,68.61
2023-05-10T04:32:29.144Z,68.65
2023-05-10T04:35:50.835Z,68.31
2023-05-10T04:39:12.411Z,68.53
2023-05-10T04:42:36.357Z,68.50
2023-05-10T04:46:00.415Z,68.35
2023-05-10T04:49:22.777Z,68.51
2023-05-10T04:52:46.601Z,68.79
2023-05-10T04:56:08.530Z,69.30
2023-05-10T04:59:30.166Z,68.83
2023-05-10T05:02:52.664Z,68.95
2023-05-10T05:06:14.382Z,68.85
2023-05-10T05:09:36.088Z,69.26
2023-05-10T05:12:57.828Z,68.67
2023-05-10T05:16:19.475Z,68.01
2023-05-10T05:19:41.110Z,67.96
2023-05-10T05:23:03.079Z,66.46
2023-05-10T05:26:24.695Z,65.81
2023-05-10T05:29:46.309Z,66.01
2023-05-10T05:33:07.977Z,66.61
2023-05-10T05:36:29.721Z,66.08
2023-05-10T05:39:55.424Z,66.12
2023-05-10T05:43:19.513Z,67.32
2023-05-10T05:46:43.287Z,66.86
2023-05-10T05:50:05.636Z,66.04
2023-05-10T05:53:27.453Z,65.83
2023-05-10T05:56:49.083Z,64.50
2023-05-10T06:00:11.333Z,65.02
2023-05-10T06:03:33.686Z,64.63
2023-05-10T06:06:55.325Z,64.49
2023-05-10T06:10:19.651Z,62.87
2023-05-10T06:13:43.934Z,62.58
2023-05-10T06:17:06.158Z,63.51
2023-05-10T06:20:32.442Z,62.51
2023-05-10T06:23:54.418Z,62.35
2023-05-10T06:27:16.127Z,62.28
2023-05-10T06:30:38.030Z,62.05
2023-05-10T06:33:59.645Z,64.02
2023-05-10T06:37:23.580Z,63.65
2023-05-10T06:40:45.185Z,61.88
2023-05-10T06:44:09.511Z,60.99
2023-05-10T06:47:31.106Z,62.44
2023-05-10T06:50:55.099Z,63.42
2023-05-10T06:54:18.908Z,63.86
2023-05-10T06:57:40.528Z,63.59
2023-05-10T07:01:06.385Z,62.88
2023-05-10T07:04:32.826Z,62.75
2023-05-10T07:07:54.384Z,62.94
2023-05-10T07:11:18.233Z,63.16
2023-05-10T07:14:39.806Z,62.68
2023-05-10T07:18:05.606Z,62.18
2023-05-10T07:21:29.912Z,63.06
2023-05-10T07:24:51.904Z,61.60
2023-05-10T07:28:14.780Z,62.66
2023-05-10T07:31:42.962Z,60.57
2023-05-10T07:35:04.860Z,59.85
2023-05-10T07:38:28.888Z,58.03
2023-05-10T07:41:50.524Z,59.40
2023-05-10T07:45:12.106Z,59.34
2023-05-10T07:48:33.665Z,58.69
2023-05-10T07:52:00.165Z,56.96
2023-05-10T07:55:24.356Z,58.52
2023-05-10T07:58:46.152Z,58.35
2023-05-10T08:02:10.398Z,58.09
2023-05-10T08:05:35.787Z,58.44
2023-05-10T08:08:57.583Z,59.18
2023-05-10T08:12:21.426Z,59.15
2023-05-10T08:15:45.259Z,57.21
2023-05-10T08:19:09.106Z,56.87
2023-05-10T08:22:30.756Z,56.86
2023-05-10T08:25:54.624Z,58.08
2023-05-10T08:29:16.592Z,60.00
2023-05-10T08:32:39.073Z,58.59
2023-05-10T08:36:03.745Z,59.02
2023-05-10T08:39:30.519Z,59.37
2023-05-10T08:43:13.744Z,60.06
2023-05-10T08:46:39.808Z,59.81
2023-05-10T08:50:04.705Z,58.91
2023-05-10T08:53:31.529Z,59.62
2023-05-10T08:56:54.300Z,58.93
2023-05-10T09:00:17.479Z,57.99
2023-05-10T09:03:40.199Z,56.64
2023-05-10T09:07:04.345Z,56.49
2023-05-10T09:10:28.183Z,54.43
2023-05-10T09:13:52.642Z,55.12
2023-05-10T09:17:14.635Z,55.66
2023-05-10T09:20:38.664Z,54.17
2023-05-10T09:24:04.373Z,52.11
2023-05-10T09:27:29.335Z,52.33
2023-05-10T09:30:56.560Z,51.85
2023-05-10T09:34:30.099Z,51.30
2023-05-10T09:37:55.974Z,51.05
2023-05-10T09:41:18.790Z,51.79
2023-05-10T09:44:44.469Z,51.87
2023-05-10T09:48:07.077Z,52.59
2023-05-10T09:51:31.168Z,50.37
2023-05-10T09:54:55.989Z,50.09
2023-05-10T09:58:17.613Z,49.31
2023-05-10T10:01:40.064Z,49.33
2023-05-10T10:05:05.305Z,47.72
2023-05-10T10:08:27.190Z,49.24
2023-05-10T10:11:51.400Z,48.48
2023-05-10T10:15:14.647Z,48.08
2023-05-10T10:18:40.973Z,48.10
2023-05-10T10:22:02.628Z,47.03
2023-05-10T10:25:27.069Z,46.09
2023-05-10T10:29:09.890Z,46.66
2023-05-10T10:32:51.345Z,45.10
2023-05-10T10:36:13.786Z,44.97
2023-05-10T10:39:37.771Z,47.09
2023-05-10T10:43:24.105Z,47.77
2023-05-10T10:47:02.423Z,47.49
2023-05-10T10:50:26.577Z,48.94
2023-05-10T10:53:49.184Z,49.49
2023-05-10T10:57:19.087Z,48.91
2023-05-10T11:00:45.549Z,48.27
2023-05-10T11:04:07.194Z,48.56
2023-05-10T11:07:28.849Z,47.86
2023-05-10T11:11:04.304Z,47.66
2023-05-10T11:14:26.575Z,48.05
2023-05-10T11:17:53.106Z,47.92
2023-05-10T11:21:16.420Z,46.58
2023-05-10T11:24:40.710Z,44.03
2023-05-10T11:28:05.524Z,44.89
2023-05-10T11:31:29.909Z,44.30
2023-05-10T11:34:52.076Z,44.54
2023-05-10T11:38:15.282Z,45.87
2023-05-10T11:41:43.702Z,46.46
2023-05-10T11:45:08.343Z,46.80
2023-05-10T11:48:31.097Z,47.38
2023-05-10T11:51:55.143Z,47.21
2023-05-10T11:55:16.843Z,47.11
2023-05-10T11:58:40.081Z,45.82
2023-05-10T12:02:01.910Z,46.08
2023-05-10T12:05:26.067Z,46.99
2023-05-10T12:08:50.953Z,46.33
2023-05-10T12:12:18.729Z,46.38
2023-05-10T12:15:40.439Z,46.89
2023-05-10T12:19:02.240Z,47.60
2023-05-10T12:22:26.635Z,48.32
2023-05-10T12:25:50.759Z,48.69
2023-05-10T12:29:16.682Z,48.66
2023-05-10T12:32:45.073Z,47.84
2023-05-10T12:36:09.267Z,47.15
2023-05-10T12:39:41.422Z,47.29
2023-05-10T12:43:05.511Z,47.34
2023-05-10T12:46:28.794Z,47.81
2023-05-10T12:49:50.571Z,47.30
2023-05-10T12:53:12.431Z,47.71
2023-05-10T12:56:33.987Z,46.81
2023-05-10T12:59:58.952Z,46.26
2023-05-10T13:03:21.041Z,44.92
2023-05-10T13:06:42.639Z,43.27
2023-05-10T13:10:04.559Z,43.87
2023-05-10T13:13:26.320Z,43.35
2023-05-10T13:16:48.412Z,45.08
2023-05-10T13:20:13.266Z,45.46
2023-05-10T13:23:35.492Z,45.64
2023-05-10T13:26:59.369Z,44.51
2023-05-10T13:30:24.853Z,44.02
2023-05-10T13:33:48.975Z,43.59
2023-05-10T13:37:12.876Z,42.77
2023-05-10T13:40:35.118Z,42.07
2023-05-10T13:43:59.515Z,42.45
2023-05-10T13:47:24.204Z,42.90
2023-05-10T13:50:46.060Z,43.85
2023-05-10T13:54:11.958Z,43.13
2023-05-10T13:57:37.958Z,43.51
2023-05-10T14:00:59.569Z,42.82
2023-05-10T14:04:21.398Z,42.01
2023-05-10T14:07:43.003Z,43.06
2023-05-10T14:11:04.665Z,42.82
2023-05-10T14:14:26.968Z,43.41
2023-05-10T14:17:48.978Z,41.58
2023-05-10T14:21:10.690Z,41.53
2023-05-10T14:24:32.574Z,40.35
2023-05-10T14:27:55.712Z,40.67
2023-05-10T14:31:18.084Z,40.78
2023-05-10T14:34:40.119Z,40.63
2023-05-10T14:38:04.366Z,41.52
2023-05-10T14:41:25.986Z,42.03
2023-05-10T14:44:47.561Z,42.66
2023-05-10T14:48:12.276Z,42.84
2023-05-10T14:51:33.977Z,43.10
2023-05-10T14:54:55.824Z,42.87
2023-05-10T14:58:17.620Z,43.18
2023-05-10T15:01:42.304Z,43.48
2023-05-10T15:05:04.681Z,42.12
2023-05-10T15:08:26.795Z,41.59
2023-05-10T15:11:48.384Z,42.54
2023-05-10T15:15:12.458Z,42.70
2023-05-10T15:18:36.546Z,42.97
2023-05-10T15:22:00.550Z,42.14
2023-05-10T15:25:22.381Z,42.77
2023-05-10T15:28:46.471Z,42.91
2023-05-10T15:32:08.138Z,43.45
2023-05-10T15:35:32.898Z,43.80
2023-05-10T15:38:57.207Z,44.17
2023-05-10T15:42:18.822Z,44.03
2023-05-10T15:45:40.514Z,44.96
2023-05-10T15:49:04.864Z,44.85
2023-05-10T15:52:26.641Z,44.49
2023-05-10T15:55:50.772Z,43.65
2023-05-10T15:59:14.580Z,43.56
2023-05-10T16:02:36.557Z,44.58
2023-05-10T16:05:58.271Z,44.38
2023-05-10T16:09:19.902Z,44.12
2023-05-10T16:12:47.183Z,44.58
2023-05-10T16:16:09.363Z,44.10
2023-05-10T16:19:31.280Z,44.10
2023-05-10T16:22:55.821Z,44.57
2023-05-10T16:26:17.511Z,44.99
2023-05-10T16:29:39.176Z,45.82
2023-05-10T16:33:04.021Z,46.21
2023-05-10T16:36:31.698Z,46.57
2023-05-10T16:39:55.761Z,46.28
2023-05-10T16:43:17.491Z,46.50
2023-05-10T16:46:39.216Z,47.13
2023-05-10T16:50:02.353Z,47.87
2023-05-10T16:53:23.989Z,48.75
2023-05-10T16:56:45.670Z,49.06
2023-05-10T17:00:08.543Z,49.03
2023-05-10T17:03:32.730Z,48.79
2023-05-10T17:06:54.397Z,49.66
2023-05-10T17:10:16.707Z,49.83
2023-05-10T17:13:38.905Z,49.37
2023-05-10T17:17:00.630Z,49.54
2023-05-10T17:20:22.344Z,49.76
2023-05-10T17:23:43.944Z,50.19
2023-05-10T17:27:05.612Z,49.94
2023-05-10T17:30:28.849Z,49.99
2023-05-10T17:33:50.490Z,49.92
2023-05-10T17:37:12.585Z,50.37
2023-05-10T17:40:40.064Z,50.53
2023-05-10T17:44:01.858Z,50.14
2023-05-10T17:47:23.499Z,50.44
2023-05-10T17:50:49.302Z,50.47
2023-05-10T17:54:13.003Z,50.46
2023-05-10T17:57:38.127Z,50.36
2023-05-10T18:00:59.764Z,51.21
2023-05-10T18:04:26.452Z,51.25
2023-05-10T18:07:48.096Z,51.42
2023-05-10T18:11:09.766Z,50.20
2023-05-10T18:14:40.496Z,50.65
2023-05-10T18:18:04.996Z,50.16
2023-05-10T18:21:31.380Z,50.35
2023-05-10T18:24:53.287Z,50.57
2023-05-10T18:28:14.906Z,50.84
2023-05-10T18:31:40.111Z,49.90
2023-05-10T18:35:01.852Z,50.09
2023-05-10T18:38:26.191Z,50.44
2023-05-10T18:41:47.858Z,50.08
2023-05-10T18:45:14.265Z,58.12
2023-05-10T18:48:38.740Z,58.00
2023-05-10T18:52:02.839Z,56.47
2023-05-10T18:55:27.896Z,50.03
2023-05-10T18:58:49.774Z,53.65
2023-05-10T19:02:11.624Z,49.64
2023-05-10T19:05:33.323Z,51.18
2023-05-10T19:08:54.922Z,58.46
2023-05-10T19:12:16.535Z,59.96
2023-05-10T19:15:38.209Z,57.66
2023-05-10T19:19:02.556Z,51.09
2023-05-10T19:22:36.145Z,51.28
2023-05-10T19:26:06.360Z,52.06
2023-05-10T19:29:30.512Z,48.05
2023-05-10T19:32:52.428Z,48.57
2023-05-10T19:36:14.240Z,49.43
2023-05-10T19:39:36.013Z,49.62
2023-05-10T19:42:57.676Z,49.95
2023-05-10T19:46:20.234Z,50.64
2023-05-10T19:49:44.634Z,51.19
2023-05-10T19:53:11.050Z,50.99
2023-05-10T19:56:35.161Z,51.95
2023-05-10T19:59:56.778Z,61.25
2023-05-10T20:03:18.676Z,58.39
2023-05-10T20:06:40.399Z,59.54
2023-05-10T20:10:05.087Z,55.26
2023-05-10T20:13:26.672Z,55.33
2023-05-10T20:16:48.552Z,51.36
2023-05-10T20:20:11.222Z,52.07
2023-05-10T20:23:38.151Z,53.91
2023-05-10T20:27:02.769Z,50.35
2023-05-10T20:30:27.386Z,54.42
2023-05-10T20:33:53.793Z,52.64
2023-05-10T20:37:17.698Z,54.03
2023-05-10T20:40:42.091Z,52.82
2023-05-10T20:44:05.526Z,51.09
2023-05-10T20:47:27.316Z,52.03
2023-05-10T20:50:49.052Z,54.75
2023-05-10T20:54:11.064Z,51.73
2023-05-10T20:57:32.662Z,52.69
2023-05-10T21:00:54.431Z,51.74
2023-05-10T21:04:16.058Z,51.51
2023-05-10T21:07:37.897Z,52.10
2023-05-10T21:11:05.643Z,51.49
2023-05-10T21:14:30.104Z,50.43
2023-05-10T21:17:56.817Z,52.48
2023-05-10T21:21:20.757Z,52.22
2023-05-10T21:24:44.792Z,48.22
2023-05-10T21:28:06.442Z,49.29
2023-05-10T21:31:30.563Z,49.40
2023-05-10T21:34:56.697Z,49.92
2023-05-10T21:38:18.297Z,50.90
2023-05-10T21:41:40.011Z,50.90
2023-05-10T21:45:01.624Z,50.82
2023-05-10T21:48:23.221Z,51.07
2023-05-10T21:51:47.340Z,51.21
2023-05-10T21:55:12.378Z,51.33
2023-05-10T21:58:38.904Z,51.17
2023-05-10T22:02:00.718Z,51.23
2023-05-10T22:05:22.423Z,51.46
2023-05-10T22:08:44.093Z,51.47
2023-05-10T22:12:08.013Z,51.81
2023-05-10T22:15:33.568Z,51.77
2023-05-10T22:18:56.561Z,51.57
2023-05-10T22:22:18.235Z,51.85
2023-05-10T22:25:39.808Z,51.87
2023-05-10T22:29:04.243Z,52.18
2023-05-10T22:32:28.385Z,52.21
2023-05-10T22:35:50.130Z,52.42
2023-05-10T22:39:11.723Z,52.28
2023-05-10T22:42:33.773Z,52.00
2023-05-10T22:45:55.354Z,52.34
2023-05-10T22:49:19.151Z,52.83
2023-05-10T22:52:40.700Z,52.94
2023-05-10T22:56:02.587Z,52.67
2023-05-10T22:59:24.277Z,52.58
2023-05-10T23:02:45.905Z,52.73
2023-05-10T23:06:07.612Z,53.15
2023-05-10T23:09:29.206Z,52.53
2023-05-10T23:12:53.398Z,52.69
2023-05-10T23:16:15.028Z,52.64
2023-05-10T23:19:36.603Z,52.55
2023-05-10T23:23:00.611Z,53.03
2023-05-10T23:26:22.244Z,53.34
2023-05-10T23:29:52.330Z,53.23
2023-05-10T23:33:18.466Z,53.45
2023-05-10T23:36:40.049Z,53.65
2023-05-10T23:40:02.030Z,54.44
2023-05-10T23:43:25.487Z,54.03
2023-05-10T23:46:47.203Z,53.54
2023-05-10T23:50:09.334Z,53.81
2023-05-10T23:53:31.127Z,54.23
2023-05-10T23:56:55.184Z,54.36
